Time;durP1;ratioP1;P1;durP2;ratioP2;P2;SDS_P1;SDS_P2;PMS_P1;PMS_P2;Temp;Humidity;BMP_temperature;BMP_pressure;BME280_temperature;BME280_humidity;BME280_pressure;Samples;Min_cycle;Max_cycle;Signal;HPM_P1;HPM_P2
2022/01/22 00:02:08;;;;;;;10.50;4.20;;;;;;;-3.50;73.66;100237.59;88092;1276;98702;-70
2022/01/22 00:04:16;;;;;;;10.80;5.50;;;;;;;-3.47;73.82;100232.23;88130;1276;87297;-62
2022/01/22 00:06:25;;;;;;;14.30;6.00;;;;;;;-3.45;74.11;100232.66;88115;1276;93817;-63
2022/01/22 00:08:38;;;;;;;13.90;5.40;;;;;;;-3.43;74.09;100226.16;88099;1276;77520;-63
2022/01/22 00:10:52;;;;;;;8.40;4.20;;;;;;;-3.42;74.19;100231.34;88123;1276;82497;-63
2022/01/22 00:14:23;;;;;;;11.90;6.20;;;;;;;-3.44;74.12;100229.60;88078;1276;97491;-64
2022/01/22 00:15:41;;;;;;;13.80;5.90;;;;;;;-3.45;74.36;100232.15;88085;1276;88714;-62
2022/01/22 00:17:55;;;;;;;12.10;5.40;;;;;;;-3.50;74.45;100229.85;88105;1276;94623;-69
2022/01/22 00:20:04;;;;;;;11.20;5.70;;;;;;;-3.57;74.74;100232.42;88111;1276;80481;-72
2022/01/22 00:22:16;;;;;;;10.20;4.70;;;;;;;-3.64;74.55;100229.70;88106;1276;82246;-72
2022/01/22 00:24:35;;;;;;;11.10;5.10;;;;;;;-3.67;74.80;100228.02;88088;1276;98865;-64
2022/01/22 00:26:49;;;;;;;9.30;5.20;;;;;;;-3.72;74.97;100232.06;88082;1276;88687;-63
2022/01/22 00:28:59;;;;;;;11.40;4.90;;;;;;;-3.75;75.36;100244.39;88121;1276;95318;-70
2022/01/22 00:31:10;;;;;;;9.30;4.10;;;;;;;-3.78;75.47;100240.39;88109;1276;80607;-72
2022/01/22 00:33:21;;;;;;;10.30;4.10;;;;;;;-3.79;76.13;100243.21;88092;1276;82365;-64
2022/01/22 00:35:30;;;;;;;9.90;5.30;;;;;;;-3.77;75.45;100239.40;88122;1276;98432;-62
2022/01/22 00:37:47;;;;;;;9.00;4.60;;;;;;;-3.73;75.89;100241.26;88092;1276;86995;-64
2022/01/22 00:39:56;;;;;;;9.10;4.10;;;;;;;-3.69;76.10;100240.59;88108;1276;94852;-69
2022/01/22 00:42:12;;;;;;;12.10;4.50;;;;;;;-3.67;76.25;100237.27;88094;1276;79583;-70
2022/01/22 00:44:22;;;;;;;12.70;4.50;;;;;;;-3.65;76.25;100238.40;88114;1276;80570;-71
2022/01/22 00:46:31;;;;;;;10.80;4.60;;;;;;;-3.64;76.40;100237.81;88064;1276;98302;-70
2022/01/22 00:48:40;;;;;;;10.70;4.50;;;;;;;-3.61;76.52;100238.65;88109;1276;88226;-63
2022/01/22 00:50:54;;;;;;;11.70;5.50;;;;;;;-3.61;76.24;100234.25;88093;1276;94659;-63
2022/01/22 00:53:03;;;;;;;10.20;4.80;;;;;;;-3.60;76.60;100240.02;88103;1276;76869;-61
2022/01/22 00:55:14;;;;;;;12.10;5.50;;;;;;;-3.64;76.47;100242.54;88105;1276;83101;-61
2022/01/22 00:57:24;;;;;;;11.90;5.00;;;;;;;-3.69;76.78;100252.08;88116;1276;98471;-62
2022/01/22 00:59:36;;;;;;;14.80;5.20;;;;;;;-3.74;76.70;100252.72;88121;1276;88078;-63
2022/01/22 01:01:46;;;;;;;11.30;5.70;;;;;;;-3.80;76.68;100250.16;88099;1276;95631;-62
2022/01/22 01:04:00;;;;;;;9.60;4.50;;;;;;;-3.82;76.68;100251.03;88102;1276;79581;-63
2022/01/22 01:06:10;;;;;;;10.40;4.40;;;;;;;-3.84;77.00;100254.48;88105;1276;83743;-63
2022/01/22 01:08:22;;;;;;;11.00;5.10;;;;;;;-3.83;77.21;100251.46;88085;1276;98913;-70
2022/01/22 01:10:32;;;;;;;10.50;4.40;;;;;;;-3.83;77.08;100248.10;88107;1276;89167;-71
2022/01/22 01:12:41;;;;;;;11.00;4.30;;;;;;;-3.78;77.41;100244.25;88060;1276;92440;-65
2022/01/22 01:15:07;;;;;;;8.60;4.20;;;;;;;-3.74;77.51;100244.64;88080;1277;80696;-61
2022/01/22 01:17:46;;;;;;;10.30;4.30;;;;;;;-3.72;77.59;100242.91;88101;1277;83792;-63
2022/01/22 01:32:20;;;;;;;9.50;4.40;;;;;;;-3.93;77.78;100229.78;88098;1277;99060;-60
2022/01/22 01:34:30;;;;;;;10.80;5.30;;;;;;;-4.00;77.72;100230.10;88082;1277;87791;-70
2022/01/22 01:36:39;;;;;;;11.60;5.90;;;;;;;-4.04;77.82;100227.35;88097;1277;95128;-72
2022/01/22 01:38:53;;;;;;;7.30;4.20;;;;;;;-4.02;78.03;100229.48;88096;1277;78779;-71
2022/01/22 01:41:11;;;;;;;10.90;4.70;;;;;;;-4.00;78.80;100223.89;88102;1277;83266;-71
2022/01/22 01:43:24;;;;;;;10.00;4.60;;;;;;;-3.94;78.69;100221.90;88106;1277;99324;-70
2022/01/22 01:45:34;;;;;;;13.80;4.60;;;;;;;-3.91;78.77;100223.14;88106;1277;88174;-71
2022/01/22 01:47:47;;;;;;;9.10;4.00;;;;;;;-3.86;79.07;100219.83;88088;1276;95078;-62
2022/01/22 01:49:59;;;;;;;6.10;3.50;;;;;;;-3.85;78.59;100209.52;88080;1277;80408;-62
2022/01/22 01:52:16;;;;;;;10.20;5.20;;;;;;;-3.83;78.43;100210.59;88128;1276;81813;-62
2022/01/22 01:54:37;;;;;;;9.90;5.30;;;;;;;-3.77;79.02;100215.32;88107;1277;97120;-72
2022/01/22 01:59:15;;;;;;;10.30;4.40;;;;;;;-3.73;79.49;100218.86;88075;1277;94260;-71
2022/01/22 02:01:24;;;;;;;8.90;4.40;;;;;;;-3.72;79.30;100221.46;88110;1277;77203;-71
2022/01/22 02:03:34;;;;;;;10.90;4.20;;;;;;;-3.68;79.18;100221.88;88117;1277;82596;-71
2022/01/22 02:05:43;;;;;;;12.80;4.60;;;;;;;-3.65;78.95;100220.81;88076;1277;97747;-71
2022/01/22 02:07:55;;;;;;;10.80;4.10;;;;;;;-3.71;79.23;100220.32;88102;1277;88018;-62
2022/01/22 02:10:07;;;;;;;11.20;4.40;;;;;;;-3.70;78.88;100218.13;88105;1278;94283;-62
2022/01/22 02:12:24;;;;;;;10.50;4.00;;;;;;;-3.69;79.40;100217.19;88073;1277;79589;-62
2022/01/22 02:24:30;;;;;;;7.70;3.80;;;;;;;-3.27;79.52;100213.27;88109;1277;77795;-70
2022/01/22 02:26:39;;;;;;;9.30;4.70;;;;;;;-3.23;79.35;100207.48;88093;1277;80696;-69
2022/01/22 02:28:52;;;;;;;8.70;3.60;;;;;;;-3.22;79.35;100204.27;88091;1277;96938;-70
2022/01/22 02:31:10;;;;;;;8.20;3.70;;;;;;;-3.25;79.38;100202.34;88133;1277;89123;-70
2022/01/22 02:33:30;;;;;;;10.80;3.70;;;;;;;-3.27;78.97;100198.25;88118;1277;92877;-62
2022/01/22 02:35:49;;;;;;;8.50;3.60;;;;;;;-3.33;79.22;100194.66;88078;1277;78888;-62
2022/01/22 02:38:04;;;;;;;9.40;3.50;;;;;;;-3.42;79.06;100197.35;88099;1277;83626;-70
2022/01/22 02:40:22;;;;;;;9.90;4.20;;;;;;;-3.52;79.23;100199.67;88110;1278;98769;-71
2022/01/22 02:42:34;;;;;;;8.30;3.50;;;;;;;-3.60;79.18;100202.17;88053;1277;89106;-69
2022/01/22 02:44:46;;;;;;;9.00;4.40;;;;;;;-3.66;79.07;100197.67;88091;1277;95191;-62
2022/01/22 02:46:57;;;;;;;10.60;5.80;;;;;;;-3.67;79.05;100200.56;88100;1277;79540;-62
2022/01/22 02:49:06;;;;;;;7.40;3.60;;;;;;;-3.71;79.40;100204.83;88082;1277;83048;-61
2022/01/22 02:51:16;;;;;;;9.80;3.80;;;;;;;-3.69;79.41;100205.80;88045;1277;98842;-61
2022/01/22 02:53:25;;;;;;;10.50;3.10;;;;;;;-3.65;79.41;100206.73;88092;1277;87644;-63
2022/01/22 02:55:38;;;;;;;7.90;3.30;;;;;;;-3.63;79.62;100200.28;88084;1278;95583;-61
2022/01/22 02:57:48;;;;;;;6.80;3.30;;;;;;;-3.61;79.59;100201.68;88094;1277;78972;-69
2022/01/22 02:59:59;;;;;;;8.10;4.20;;;;;;;-3.59;79.61;100205.80;88115;1277;80671;-71
2022/01/22 03:02:12;;;;;;;9.30;3.40;;;;;;;-3.60;79.46;100206.17;88118;1277;97390;-69
2022/01/22 03:04:22;;;;;;;8.50;3.30;;;;;;;-3.60;79.42;100209.19;88081;1277;88136;-69
2022/01/22 03:06:31;;;;;;;10.00;3.50;;;;;;;-3.61;79.31;100211.41;88147;1276;97250;-71
2022/01/22 03:08:42;;;;;;;7.40;4.00;;;;;;;-3.68;79.29;100222.23;88067;1277;77835;-61
2022/01/22 03:10:54;;;;;;;9.90;3.90;;;;;;;-3.71;79.16;100222.25;88086;1277;83204;-62
2022/01/22 03:13:22;;;;;;;7.60;3.10;;;;;;;-3.75;79.38;100217.99;88121;1277;98614;-70
2022/01/22 03:15:49;;;;;;;8.20;3.30;;;;;;;-3.78;79.51;100216.61;88112;1277;88006;-73
2022/01/22 03:18:05;;;;;;;7.40;3.30;;;;;;;-3.82;79.39;100218.67;88036;1277;95170;-63
2022/01/22 03:20:34;;;;;;;9.60;3.60;;;;;;;-3.85;79.47;100217.44;88047;1277;80524;-62
2022/01/22 03:23:06;;;;;;;11.20;3.80;;;;;;;-3.85;79.33;100225.85;88082;1276;81927;-63
2022/01/22 03:27:42;;;;;;;9.50;3.40;;;;;;;-3.76;79.73;100226.67;88062;1277;89277;-69
2022/01/22 03:29:51;;;;;;;9.20;3.40;;;;;;;-3.72;79.82;100224.25;88080;1277;95982;-73
2022/01/22 03:32:02;;;;;;;6.20;2.80;;;;;;;-3.68;79.88;100225.59;88106;1277;76847;-70
2022/01/22 03:34:15;;;;;;;8.30;3.30;;;;;;;-3.68;79.63;100223.65;88107;1277;82075;-70
2022/01/22 03:36:28;;;;;;;7.20;2.90;;;;;;;-3.67;79.68;100224.85;88106;1277;98285;-72
2022/01/22 03:38:42;;;;;;;7.70;3.70;;;;;;;-3.69;79.56;100218.77;88120;1277;88275;-64
2022/01/22 03:40:51;;;;;;;10.60;3.70;;;;;;;-3.71;79.62;100222.31;88081;1277;95231;-62
2022/01/22 03:43:00;;;;;;;9.00;3.30;;;;;;;-3.71;79.70;100217.54;88083;1276;77749;-73
2022/01/22 03:45:14;;;;;;;9.20;3.50;;;;;;;-3.74;79.51;100219.11;88094;1277;83746;-71
2022/01/22 03:47:27;;;;;;;7.60;3.40;;;;;;;-3.75;79.48;100227.68;88095;1277;98927;-71
2022/01/22 03:49:37;;;;;;;7.00;3.20;;;;;;;-3.78;79.63;100232.05;88098;1277;88055;-64
2022/01/22 03:51:47;;;;;;;9.10;3.30;;;;;;;-3.82;79.63;100235.87;88094;1277;95814;-64
2022/01/22 03:53:56;;;;;;;10.70;3.60;;;;;;;-3.83;79.55;100239.48;88091;1277;81163;-70
2022/01/22 03:56:07;;;;;;;6.70;3.40;;;;;;;-3.84;79.53;100244.27;88117;1277;80023;-73
2022/01/22 03:58:17;;;;;;;6.40;2.90;;;;;;;-3.81;79.93;100247.63;88098;1277;98574;-63
2022/01/22 04:00:25;;;;;;;7.90;2.90;;;;;;;-3.76;79.86;100242.84;88091;1277;87690;-63
2022/01/22 04:05:10;;;;;;;8.00;3.70;;;;;;;-3.70;79.74;100247.71;87601;1284;76866;-71
2022/01/22 04:07:55;;;;;;;7.30;2.90;;;;;;;-3.66;79.75;100247.12;87639;1284;81254;-71
2022/01/22 04:10:10;;;;;;;5.10;2.20;;;;;;;-3.65;79.86;100242.44;87604;1284;97543;-63
2022/01/22 04:12:30;;;;;;;7.50;2.70;;;;;;;-3.65;79.94;100245.44;87647;1284;89140;-63
2022/01/22 04:14:46;;;;;;;6.60;2.90;;;;;;;-3.67;79.75;100248.91;87628;1284;93959;-63
2022/01/22 04:17:05;;;;;;;6.10;2.40;;;;;;;-3.72;79.74;100252.61;87610;1282;80338;-63
2022/01/22 04:26:52;;;;;;;7.50;2.80;;;;;;;-3.88;79.95;100264.80;88047;1279;94413;-63
2022/01/22 04:29:02;;;;;;;6.90;3.40;;;;;;;-3.88;79.97;100263.01;88068;1279;77591;-71
2022/01/22 04:31:12;;;;;;;6.30;3.10;;;;;;;-3.86;79.79;100269.23;88075;1279;82283;-74
2022/01/22 04:33:21;;;;;;;9.10;2.90;;;;;;;-3.83;79.90;100271.30;88057;1279;98749;-72
2022/01/22 04:35:31;;;;;;;9.50;3.10;;;;;;;-3.80;79.98;100276.55;88070;1279;89172;-72
2022/01/22 04:37:41;;;;;;;9.90;3.50;;;;;;;-3.76;80.06;100278.77;88088;1279;94362;-64
2022/01/22 04:39:51;;;;;;;8.80;2.90;;;;;;;-3.74;79.74;100278.76;88048;1279;77642;-62
2022/01/22 04:42:01;;;;;;;6.30;2.80;;;;;;;-3.75;79.93;100283.42;88080;1279;83702;-63
2022/01/22 04:44:10;;;;;;;8.80;3.10;;;;;;;-3.79;79.88;100287.02;88051;1279;98542;-62
2022/01/22 04:46:24;;;;;;;7.50;2.80;;;;;;;-3.80;79.62;100289.41;88060;1279;88792;-62
2022/01/22 04:48:48;;;;;;;9.60;2.80;;;;;;;-3.81;79.79;100290.48;88019;1279;95488;-61
2022/01/22 04:55:51;;;;;;;8.50;3.10;;;;;;;-3.92;79.70;100304.80;88093;1276;97999;-71
2022/01/22 04:58:03;;;;;;;6.20;3.00;;;;;;;-3.90;79.76;100309.95;88119;1276;87401;-71
2022/01/22 05:00:18;;;;;;;11.10;3.30;;;;;;;-3.87;79.60;100310.11;88102;1276;94108;-71
2022/01/22 05:02:27;;;;;;;9.90;3.20;;;;;;;-3.82;79.91;100307.11;88104;1276;79965;-72
2022/01/22 05:04:39;;;;;;;10.90;3.60;;;;;;;-3.73;80.12;100310.20;88152;1276;82865;-61
2022/01/22 05:06:51;;;;;;;12.70;4.20;;;;;;;-3.66;80.01;100313.45;88113;1276;96632;-62
2022/01/22 05:09:02;;;;;;;10.20;4.20;;;;;;;-3.60;79.91;100309.88;88110;1273;89274;-72
2022/01/22 05:11:11;;;;;;;10.60;4.40;;;;;;;-3.57;80.12;100311.95;88090;1276;94545;-73
2022/01/22 05:13:20;;;;;;;10.50;3.10;;;;;;;-3.51;79.79;100302.23;88069;1276;76566;-61
2022/01/22 05:15:33;;;;;;;9.20;3.60;;;;;;;-3.50;80.00;100306.02;88133;1276;82787;-63
2022/01/22 05:17:43;;;;;;;11.40;3.80;;;;;;;-3.53;79.98;100303.93;88105;1276;97737;-62
2022/01/22 05:19:58;;;;;;;11.50;4.60;;;;;;;-3.58;79.73;100304.61;88109;1276;87874;-62
2022/01/22 05:22:16;;;;;;;9.70;4.40;;;;;;;-3.60;79.80;100312.52;88098;1276;94166;-71
2022/01/22 05:24:31;;;;;;;14.20;4.40;;;;;;;-3.56;80.02;100315.96;88092;1276;78956;-71
2022/01/22 05:27:08;;;;;;;13.30;4.20;;;;;;;-3.49;79.79;100313.52;88116;1276;82057;-72
2022/01/22 05:29:25;;;;;;;12.50;3.70;;;;;;;-3.43;79.87;100318.22;88060;1276;98522;-61
2022/01/22 05:31:53;;;;;;;10.20;4.10;;;;;;;-3.38;79.92;100318.25;88112;1276;87568;-61
2022/01/22 05:39:09;;;;;;;11.20;4.20;;;;;;;-3.18;79.86;100320.35;88095;1276;83471;-72
2022/01/22 05:41:18;;;;;;;10.20;3.40;;;;;;;-3.12;79.81;100323.63;88114;1276;96750;-71
2022/01/22 05:43:27;;;;;;;8.50;2.90;;;;;;;-3.05;79.79;100322.83;88081;1276;87772;-70
2022/01/22 05:45:37;;;;;;;10.40;3.50;;;;;;;-3.01;79.63;100328.70;88102;1276;95775;-72
2022/01/22 05:47:50;;;;;;;10.70;4.80;;;;;;;-2.98;79.69;100330.95;88097;1276;76990;-70
2022/01/22 05:50:01;;;;;;;9.00;3.60;;;;;;;-2.90;79.55;100336.94;88126;1276;82098;-74
2022/01/22 05:52:13;;;;;;;12.10;3.80;;;;;;;-2.86;79.41;100337.71;88102;1276;98594;-73
2022/01/22 05:59:39;;;;;;;8.50;2.70;;;;;;;-2.80;79.70;100351.02;88079;1276;78901;-71
2022/01/22 06:01:49;;;;;;;8.70;2.90;;;;;;;-2.81;79.39;100357.80;88121;1276;81506;-71
2022/01/22 06:03:58;;;;;;;12.20;3.10;;;;;;;-2.80;79.43;100360.89;88084;1276;100161;-72
2022/01/22 06:06:08;;;;;;;10.00;2.80;;;;;;;-2.80;79.28;100367.77;88117;1276;87171;-71
2022/01/22 06:08:17;;;;;;;6.10;2.50;;;;;;;-2.79;79.30;100368.41;88091;1276;95424;-64
2022/01/22 06:10:32;;;;;;;5.60;2.50;;;;;;;-2.77;79.67;100374.60;88125;1276;78769;-62
2022/01/22 06:12:46;;;;;;;5.30;2.40;;;;;;;-2.72;79.69;100377.45;88113;1276;82185;-71
2022/01/22 06:14:53;;;;;;;;;;;;;;;-2.63;79.59;100382.44;88124;1276;97928;-78
2022/01/22 06:17:03;;;;;;;4.00;1.60;;;;;;;-2.56;79.61;100386.36;88117;1276;87922;-77
2022/01/22 06:19:13;;;;;;;6.90;2.70;;;;;;;-2.48;79.48;100388.61;88086;1276;94148;-64
2022/01/22 06:21:24;;;;;;;5.30;1.90;;;;;;;-2.39;79.64;100389.38;88094;1276;77062;-61
2022/01/22 06:23:37;;;;;;;5.60;1.90;;;;;;;-2.37;79.48;100386.41;88123;1276;82881;-64
2022/01/22 06:25:46;;;;;;;5.00;1.80;;;;;;;-2.34;79.49;100394.52;88136;1276;98268;-61
2022/01/22 06:27:58;;;;;;;6.00;2.20;;;;;;;-2.33;79.36;100389.84;88098;1276;86871;-74
2022/01/22 06:30:13;;;;;;;7.00;2.40;;;;;;;-2.34;79.14;100388.14;88106;1273;95107;-73
2022/01/22 06:32:21;;;;;;;6.90;2.00;;;;;;;-2.39;79.20;100392.19;88119;1276;78884;-73
2022/01/22 06:34:31;;;;;;;4.70;2.30;;;;;;;-2.42;79.14;100387.61;88178;1274;81446;-62
2022/01/22 06:36:43;;;;;;;5.40;2.20;;;;;;;-2.49;78.99;100392.68;88127;1276;98262;-62
2022/01/22 06:38:57;;;;;;;5.90;2.30;;;;;;;-2.50;79.06;100397.72;88134;1276;87248;-75
2022/01/22 06:43:33;;;;;;;4.80;1.90;;;;;;;-2.48;79.11;100412.93;88096;1276;79550;-63
2022/01/22 06:45:42;;;;;;;8.30;2.60;;;;;;;-2.45;79.33;100420.66;88108;1276;82069;-62
2022/01/22 06:47:51;;;;;;;4.20;1.70;;;;;;;-2.41;79.17;100420.02;88098;1276;99469;-63
2022/01/22 06:50:00;;;;;;;7.70;2.50;;;;;;;-2.38;79.16;100425.63;88118;1276;87712;-63
2022/01/22 06:52:10;;;;;;;6.40;1.70;;;;;;;-2.33;79.21;100428.96;88078;1276;94483;-62
2022/01/22 06:54:22;;;;;;;4.10;1.80;;;;;;;-2.24;79.28;100427.46;88096;1276;81983;-62
2022/01/22 06:56:31;;;;;;;8.50;2.20;;;;;;;-2.18;79.33;100425.45;88094;1276;79208;-61
2022/01/22 06:58:43;;;;;;;4.90;2.10;;;;;;;-2.09;79.27;100423.91;88129;1276;97896;-77
2022/01/22 07:00:56;;;;;;;5.90;2.40;;;;;;;-2.01;79.26;100426.52;88119;1276;88151;-76
2022/01/22 07:03:06;;;;;;;8.90;2.60;;;;;;;-1.99;79.30;100432.91;88115;1276;93546;-62
2022/01/22 07:05:15;;;;;;;7.10;2.70;;;;;;;-2.01;79.02;100431.98;88077;1276;79510;-64
2022/01/22 07:07:25;;;;;;;7.30;2.60;;;;;;;-2.03;79.07;100432.31;88135;1276;81156;-61
2022/01/22 07:09:35;;;;;;;5.10;2.40;;;;;;;-2.05;79.01;100438.63;88116;1276;99107;-73
2022/01/22 07:11:44;;;;;;;8.90;2.50;;;;;;;-2.04;78.91;100441.71;88097;1276;89530;-73
2022/01/22 07:13:54;;;;;;;6.00;2.50;;;;;;;-2.06;79.15;100450.33;88107;1276;95224;-74
2022/01/22 07:16:03;;;;;;;4.80;2.30;;;;;;;-2.03;79.11;100453.30;88109;1276;77573;-74
2022/01/22 07:18:19;;;;;;;7.90;2.80;;;;;;;-1.99;79.08;100449.30;88096;1276;80896;-63
2022/01/22 07:20:31;;;;;;;10.20;2.80;;;;;;;-1.94;79.18;100456.17;87590;1276;712480;-75
2022/01/22 07:22:49;;;;;;;7.50;2.40;;;;;;;-1.89;79.25;100450.87;88091;1276;88206;-70
2022/01/22 07:25:01;;;;;;;8.00;2.90;;;;;;;-1.81;79.26;100454.89;88074;1276;96185;-61
2022/01/22 07:27:11;;;;;;;7.00;2.50;;;;;;;-1.74;79.09;100450.73;88092;1276;80136;-61
2022/01/22 07:29:20;;;;;;;7.80;2.80;;;;;;;-1.69;79.27;100455.48;88130;1276;82702;-61
2022/01/22 07:31:30;;;;;;;7.40;3.40;;;;;;;-1.67;79.21;100455.33;88081;1274;98483;-62
2022/01/22 07:33:40;;;;;;;7.10;2.30;;;;;;;-1.63;79.22;100460.31;88118;1276;88953;-69
2022/01/22 07:35:49;;;;;;;6.10;2.50;;;;;;;-1.61;79.53;100463.21;88133;1276;94335;-63
2022/01/22 07:37:59;;;;;;;7.10;2.50;;;;;;;-1.57;79.29;100465.67;88133;1276;77053;-71
2022/01/22 07:40:15;;;;;;;18.30;3.10;;;;;;;-1.51;79.30;100464.90;88157;1276;80170;-71
2022/01/22 07:42:25;;;;;;;6.20;3.30;;;;;;;-1.43;79.16;100472.23;88105;1276;99536;-71
2022/01/22 07:44:34;;;;;;;6.60;2.60;;;;;;;-1.40;79.06;100475.58;88137;1276;87007;-68
2022/01/22 07:46:44;;;;;;;5.50;2.70;;;;;;;-1.42;79.13;100486.31;88097;1276;95090;-63
2022/01/22 07:48:57;;;;;;;11.30;3.30;;;;;;;-1.38;78.88;100492.02;88111;1276;77965;-64
2022/01/22 07:51:10;;;;;;;7.20;3.70;;;;;;;-1.36;78.82;100501.08;88126;1276;82289;-71
2022/01/22 07:53:20;;;;;;;7.20;3.40;;;;;;;-1.34;79.09;100512.73;88112;1276;99452;-64
2022/01/22 07:55:33;;;;;;;8.40;3.60;;;;;;;-1.31;78.80;100518.88;88114;1276;87980;-63
2022/01/22 07:57:45;;;;;;;11.10;4.20;;;;;;;-1.29;78.63;100521.77;88151;1276;95281;-66
2022/01/22 07:59:57;;;;;;;8.90;3.30;;;;;;;-1.30;78.91;100528.51;88096;1276;79261;-70
2022/01/22 08:02:10;;;;;;;9.40;3.40;;;;;;;-1.24;78.83;100530.39;88123;1276;80141;-71
2022/01/22 08:04:24;;;;;;;4.80;2.60;;;;;;;-1.19;79.11;100532.65;88112;1276;98493;-63
2022/01/22 08:06:37;;;;;;;12.90;4.20;;;;;;;-1.16;78.97;100532.06;88106;1276;88307;-63
2022/01/22 08:08:50;;;;;;;13.30;5.00;;;;;;;-1.12;78.90;100533.05;88056;1279;94289;-63
2022/01/22 08:11:00;;;;;;;9.40;4.60;;;;;;;-1.07;79.01;100537.93;88124;1276;79907;-63
2022/01/22 08:13:10;;;;;;;8.00;3.60;;;;;;;-1.01;79.00;100544.79;88118;1276;81438;-69
2022/01/22 08:15:23;;;;;;;8.00;3.50;;;;;;;-0.96;79.15;100548.48;88082;1278;95620;-70
2022/01/22 08:17:32;;;;;;;7.20;3.20;;;;;;;-0.93;79.09;100547.52;88125;1276;89010;-71
2022/01/22 08:19:44;;;;;;;7.70;3.90;;;;;;;-0.92;79.30;100554.68;88121;1276;94314;-66
2022/01/22 08:21:57;;;;;;;10.60;3.80;;;;;;;-0.90;79.19;100555.98;88117;1276;79852;-64
2022/01/22 08:24:11;;;;;;;13.10;4.30;;;;;;;-0.94;79.29;100566.00;88126;1276;81180;-70
2022/01/22 08:26:25;;;;;;;9.90;4.00;;;;;;;-0.91;79.20;100572.84;88117;1276;96370;-62
2022/01/22 08:28:58;;;;;;;11.30;4.80;;;;;;;-0.92;79.12;100574.64;88127;1276;87819;-70
2022/01/22 08:31:23;;;;;;;12.50;5.30;;;;;;;-0.87;79.14;100579.59;88098;1273;94702;-62
2022/01/22 08:36:00;;;;;;;21.10;9.00;;;;;;;-0.62;79.26;100593.98;88113;1276;82367;-62
2022/01/22 08:38:11;;;;;;;27.50;10.50;;;;;;;-0.50;79.36;100602.35;88102;1276;98356;-70
2022/01/22 08:40:20;;;;;;;23.20;9.00;;;;;;;-0.42;79.27;100600.65;88125;1276;88382;-70
2022/01/22 08:42:29;;;;;;;19.20;8.50;;;;;;;-0.32;79.32;100605.48;88104;1276;94633;-71
2022/01/22 08:44:40;;;;;;;23.10;10.20;;;;;;;-0.24;79.38;100617.00;88111;1276;77491;-64
2022/01/22 08:46:49;;;;;;;19.40;9.00;;;;;;;-0.23;79.41;100626.61;88137;1276;83338;-63
2022/01/22 08:49:03;;;;;;;13.50;6.10;;;;;;;-0.16;79.26;100628.17;88118;1276;99429;-64
2022/01/22 08:51:15;;;;;;;12.30;4.50;;;;;;;-0.01;79.35;100631.09;88108;1276;89025;-63
2022/01/22 08:53:26;;;;;;;13.70;5.70;;;;;;;0.13;79.25;100631.98;88156;1276;94636;-69
2022/01/22 08:55:39;;;;;;;11.10;4.20;;;;;;;0.22;79.22;100627.20;88116;1276;76976;-70
2022/01/22 08:57:51;;;;;;;15.40;6.20;;;;;;;0.62;79.31;100621.08;88154;1276;80849;-63
2022/01/22 09:00:04;;;;;;;15.90;7.40;;;;;;;0.93;78.98;100625.51;88092;1276;97500;-63
2022/01/22 09:02:16;;;;;;;14.60;6.00;;;;;;;1.04;78.62;100633.09;88109;1276;89923;-63
2022/01/22 09:04:26;;;;;;;11.40;4.90;;;;;;;1.16;78.48;100638.51;88098;1276;93293;-70
2022/01/22 09:06:35;;;;;;;13.90;5.40;;;;;;;1.31;78.35;100647.74;88089;1276;81255;-69
2022/01/22 09:08:50;;;;;;;10.20;4.80;;;;;;;1.38;78.09;100655.63;88114;1276;82923;-64
2022/01/22 09:11:02;;;;;;;6.90;4.10;;;;;;;1.33;77.87;100659.09;88127;1276;99560;-63
2022/01/22 09:13:12;;;;;;;8.70;4.40;;;;;;;1.32;77.97;100656.33;88162;1276;86689;-70
2022/01/22 09:15:24;;;;;;;8.00;4.30;;;;;;;1.53;77.98;100662.25;88130;1276;95679;-70
2022/01/22 09:17:35;;;;;;;9.00;4.20;;;;;;;1.57;77.73;100664.76;88096;1276;78297;-69
2022/01/22 09:19:46;;;;;;;7.10;4.20;;;;;;;1.45;77.56;100670.19;88138;1276;83722;-70
2022/01/22 09:21:55;;;;;;;9.80;4.00;;;;;;;1.35;77.41;100669.92;88106;1276;98516;-70
2022/01/22 09:24:06;;;;;;;12.90;5.00;;;;;;;1.32;77.11;100664.00;88108;1276;89528;-64
2022/01/22 09:26:19;;;;;;;8.10;3.90;;;;;;;1.21;76.85;100676.04;88136;1276;94810;-65
2022/01/22 09:28:31;;;;;;;6.50;2.80;;;;;;;1.16;76.67;100680.18;88130;1276;77193;-63
2022/01/22 09:30:44;;;;;;;5.80;2.70;;;;;;;1.33;75.96;100686.62;88159;1276;82624;-62
2022/01/22 09:32:54;;;;;;;5.30;3.00;;;;;;;1.86;76.13;100690.22;88113;1276;97619;-65
2022/01/22 09:35:04;;;;;;;5.40;2.40;;;;;;;2.54;75.82;100690.15;88127;1276;88741;-64
2022/01/22 09:37:14;;;;;;;4.60;2.30;;;;;;;2.65;74.85;100690.39;88141;1276;94183;-63
2022/01/22 09:39:23;;;;;;;4.20;2.10;;;;;;;3.21;73.83;100682.92;88150;1276;77970;-63
2022/01/22 09:41:32;;;;;;;3.10;1.70;;;;;;;3.75;73.21;100679.45;88136;1276;83540;-63
2022/01/22 09:43:41;;;;;;;3.00;1.90;;;;;;;4.48;72.69;100685.48;88125;1276;99278;-69
2022/01/22 09:45:53;;;;;;;3.60;1.90;;;;;;;5.17;71.84;100686.39;88140;1276;89539;-69
2022/01/22 09:48:06;;;;;;;3.00;1.80;;;;;;;5.81;71.20;100688.27;88132;1276;95187;-64
2022/01/22 09:50:22;;;;;;;2.60;1.80;;;;;;;6.39;70.28;100696.11;88133;1276;80153;-63
2022/01/22 09:52:31;;;;;;;4.40;2.00;;;;;;;6.89;68.96;100703.22;88142;1276;81641;-65
2022/01/22 09:54:40;;;;;;;3.90;1.90;;;;;;;7.39;68.69;100705.41;88080;1276;99519;-63
2022/01/22 09:56:49;;;;;;;5.20;2.00;;;;;;;7.62;66.69;100698.61;88120;1276;88128;-65
2022/01/22 09:59:00;;;;;;;3.90;2.30;;;;;;;7.87;66.35;100704.77;88124;1276;94843;-67
2022/01/22 10:01:27;;;;;;;2.70;1.80;;;;;;;7.86;65.44;100710.38;88116;1276;78075;-68
2022/01/22 10:03:42;;;;;;;3.50;1.90;;;;;;;7.22;64.79;100721.84;88140;1276;82943;-68
2022/01/22 10:05:51;;;;;;;3.80;1.90;;;;;;;6.54;64.00;100732.20;88114;1276;98703;-70
2022/01/22 10:08:21;;;;;;;4.40;2.30;;;;;;;6.11;63.76;100733.41;88119;1276;88821;-64
2022/01/22 10:10:40;;;;;;;4.60;2.50;;;;;;;6.00;63.63;100740.71;88107;1276;94575;-64
2022/01/22 10:12:52;;;;;;;3.80;2.00;;;;;;;5.60;63.98;100745.58;88082;1276;77788;-63
2022/01/22 10:15:14;;;;;;;2.40;1.70;;;;;;;5.48;63.76;100748.73;88137;1276;82752;-63
2022/01/22 10:17:42;;;;;;;4.00;2.40;;;;;;;5.38;63.60;100746.64;88135;1276;99608;-63
2022/01/22 10:19:50;;;;;;;5.90;3.20;;;;;;;5.17;63.64;100756.14;88139;1276;88391;-65
2022/01/22 10:22:04;;;;;;;3.00;2.30;;;;;;;4.87;63.23;100758.92;88087;1276;94638;-63
2022/01/22 10:24:38;;;;;;;3.40;2.20;;;;;;;4.41;62.42;100766.06;88129;1276;78260;-69
2022/01/22 10:27:10;;;;;;;4.00;2.20;;;;;;;3.86;63.21;100769.64;88143;1276;80340;-71
2022/01/22 10:29:24;;;;;;;3.50;1.80;;;;;;;3.45;63.05;100774.95;88091;1276;97622;-64
2022/01/22 10:31:46;;;;;;;3.00;2.00;;;;;;;3.33;63.60;100783.30;88111;1276;87975;-64
2022/01/22 10:34:13;;;;;;;2.90;2.10;;;;;;;3.32;63.76;100788.97;88147;1276;95092;-69
2022/01/22 10:36:24;;;;;;;3.80;2.10;;;;;;;3.38;63.72;100792.37;88100;1276;79081;-69
2022/01/22 10:38:45;;;;;;;3.50;2.00;;;;;;;3.20;63.39;100800.14;88135;1276;81311;-70
2022/01/22 10:40:59;;;;;;;4.20;1.90;;;;;;;3.02;64.05;100807.00;88141;1276;98280;-70
2022/01/22 10:43:29;;;;;;;4.80;2.30;;;;;;;3.05;64.33;100811.49;88131;1276;88620;-65
2022/01/22 10:45:41;;;;;;;5.00;2.90;;;;;;;2.85;64.32;100811.84;88114;1276;95419;-63
2022/01/22 10:47:51;;;;;;;5.50;3.00;;;;;;;2.78;64.51;100812.48;88147;1276;79120;-71
2022/01/22 10:50:18;;;;;;;5.40;2.50;;;;;;;2.49;64.22;100812.30;88126;1276;82365;-72
2022/01/22 10:52:30;;;;;;;3.40;2.50;;;;;;;2.25;64.32;100817.70;88145;1276;98033;-70
2022/01/22 10:54:41;;;;;;;3.70;2.30;;;;;;;2.08;64.23;100822.27;88061;1278;87959;-63
2022/01/22 10:56:54;;;;;;;4.80;2.50;;;;;;;1.97;64.71;100822.49;88094;1276;95569;-65
2022/01/22 10:59:07;;;;;;;5.40;2.50;;;;;;;1.97;64.75;100826.92;88123;1276;77348;-64
2022/01/22 11:01:17;;;;;;;4.50;2.50;;;;;;;1.92;64.79;100830.86;88140;1276;83475;-64
2022/01/22 11:03:28;;;;;;;4.00;2.10;;;;;;;1.97;64.93;100832.64;88152;1276;98805;-71
2022/01/22 11:05:41;;;;;;;5.40;2.40;;;;;;;1.89;64.82;100840.23;88129;1276;89539;-71
2022/01/22 11:08:12;;;;;;;4.10;2.50;;;;;;;1.87;64.98;100843.86;88135;1276;93642;-69
2022/01/22 11:10:21;;;;;;;5.90;2.10;;;;;;;1.68;65.01;100851.80;88115;1276;78839;-69
2022/01/22 11:12:30;;;;;;;3.60;2.00;;;;;;;1.68;65.08;100852.87;88135;1276;80933;-70
2022/01/22 11:14:44;;;;;;;3.10;1.90;;;;;;;1.60;64.83;100857.81;88117;1276;98440;-64
2022/01/22 11:16:55;;;;;;;4.40;2.20;;;;;;;1.46;64.91;100859.13;88117;1276;87461;-64